Time;durP1;ratioP1;P1;durP2;ratioP2;P2;SDS_P1;SDS_P2;PMS_P1;PMS_P2;Temp;Humidity;BMP_temperature;BMP_pressure;BME280_temperature;BME280_humidity;BME280_pressure;Samples;Min_cycle;Max_cycle;Signal;HPM_P1;HPM_P2
2021/01/04 00:00:12;;;;;;;21.48;10.73;;;;;;;2.18;97.81;101687.31;5061938;28;20234;-61
2021/01/04 00:02:54;;;;;;;17.85;10.70;;;;;;;2.20;98.64;101693.47;5062027;28;20052;-62
2021/01/04 00:05:31;;;;;;;17.35;10.18;;;;;;;2.18;98.09;101685.56;5061223;28;20183;-63
2021/01/04 00:08:14;;;;;;;19.00;10.40;;;;;;;2.14;98.03;101691.06;5060668;28;20140;-62
2021/01/04 00:10:57;;;;;;;19.23;10.85;;;;;;;2.17;98.44;101675.00;5061713;28;20103;-62
2021/01/04 00:13:30;;;;;;;19.77;10.60;;;;;;;2.19;98.67;101679.28;5056923;28;20040;-62
2021/01/04 00:16:06;;;;;;;18.77;10.40;;;;;;;2.16;98.07;101683.88;5059607;28;20047;-62
2021/01/04 00:18:43;;;;;;;18.08;9.80;;;;;;;2.16;98.60;101679.41;5061608;28;20056;-61
2021/01/04 00:21:19;;;;;;;15.63;9.93;;;;;;;2.16;98.76;101673.25;5059307;28;20053;-62
2021/01/04 00:23:55;;;;;;;14.43;9.07;;;;;;;2.16;98.89;101675.91;5058869;28;20059;-62
2021/01/04 00:26:26;;;;;;;19.60;10.98;;;;;;;2.16;98.56;101667.94;5061411;28;20117;-62
2021/01/04 00:28:52;;;;;;;17.67;10.00;;;;;;;2.18;98.36;101676.69;5061058;28;20049;-61
2021/01/04 00:31:22;;;;;;;18.42;10.95;;;;;;;2.12;98.24;101671.66;5060823;28;20064;-61
2021/01/04 00:33:53;;;;;;;17.17;10.27;;;;;;;2.16;97.95;101670.59;5058952;28;20064;-63
2021/01/04 00:36:23;;;;;;;17.48;9.80;;;;;;;2.19;98.57;101663.34;5044142;28;20452;-63
2021/01/04 00:39:03;;;;;;;17.83;10.38;;;;;;;2.17;97.96;101670.53;5060354;28;20048;-62
2021/01/04 00:41:39;;;;;;;16.77;9.98;;;;;;;2.19;98.13;101665.16;5050536;28;20100;-62
2021/01/04 00:44:09;;;;;;;23.17;11.10;;;;;;;2.16;98.57;101673.25;5059016;28;20056;-62
2021/01/04 00:49:15;;;;;;;17.73;9.88;;;;;;;2.18;98.89;101672.28;5046419;22;20050;-62
2021/01/04 00:51:47;;;;;;;20.00;10.65;;;;;;;2.13;98.05;101668.94;5020624;28;20510;-62
2021/01/04 00:54:34;;;;;;;18.38;10.07;;;;;;;2.12;98.14;101669.00;5020031;28;20057;-62
2021/01/04 00:57:11;;;;;;;20.95;10.85;;;;;;;2.13;98.74;101668.94;5039915;28;20046;-63
2021/01/04 00:59:51;;;;;;;18.60;10.63;;;;;;;2.15;98.53;101669.75;5040523;28;20060;-63
2021/01/04 01:02:59;;;;;;;19.70;10.15;;;;;;;2.16;98.17;101657.31;5039071;28;20091;-63
2021/01/04 01:05:36;;;;;;;20.20;10.20;;;;;;;2.17;98.57;101665.22;5039885;28;20049;-63
2021/01/04 01:08:12;;;;;;;19.58;10.85;;;;;;;2.17;98.05;101677.66;5038053;28;20537;-62
2021/01/04 01:10:42;;;;;;;19.08;9.90;;;;;;;2.20;98.83;101664.25;5038690;28;20072;-63
2021/01/04 01:13:24;;;;;;;;;;;;;;;2.16;98.99;101674.09;5039194;28;20052;-63
2021/01/04 01:16:06;;;;;;;17.52;9.65;;;;;;;2.13;99.08;101673.38;5038968;28;19921;-63
2021/01/04 01:18:36;;;;;;;20.05;10.23;;;;;;;2.24;98.05;101668.50;5039211;28;20054;-63
2021/01/04 01:21:06;;;;;;;18.88;9.57;;;;;;;2.20;99.07;101669.56;5039370;28;20236;-62
2021/01/04 01:23:32;;;;;;;16.08;8.80;;;;;;;2.20;98.98;101680.19;5038872;28;20069;-64
2021/01/04 01:26:09;;;;;;;15.02;9.13;;;;;;;2.24;98.80;101684.44;5036789;28;20060;-63
2021/01/04 01:28:58;;;;;;;17.27;10.45;;;;;;;2.23;98.98;101680.06;5039299;28;20490;-64
2021/01/04 01:31:34;;;;;;;20.77;10.03;;;;;;;2.17;98.90;101685.63;5039276;28;20056;-63
2021/01/04 01:34:15;;;;;;;17.98;8.90;;;;;;;2.15;98.92;101675.06;5039667;28;20045;-63
2021/01/04 01:37:05;;;;;;;17.42;9.85;;;;;;;2.12;98.67;101677.84;5036845;28;20482;-62
2021/01/04 01:40:21;;;;;;;21.90;10.27;;;;;;;2.12;98.29;101684.91;5037705;28;20056;-63
2021/01/04 01:43:12;;;;;;;20.67;9.88;;;;;;;2.09;98.40;101681.47;4949631;28;20061;-63
2021/01/04 01:45:45;;;;;;;21.20;11.18;;;;;;;2.08;99.19;101686.84;4957653;28;20197;-62
2021/01/04 01:48:21;;;;;;;19.05;9.77;;;;;;;2.11;98.71;101686.72;5015214;28;20061;-63
2021/01/04 01:50:51;;;;;;;16.30;10.35;;;;;;;2.11;99.31;101692.03;5060408;28;20481;-63
2021/01/04 01:53:26;;;;;;;21.27;11.30;;;;;;;2.10;99.26;101687.63;5058618;28;20113;-62
2021/01/04 01:56:16;;;;;;;18.77;10.95;;;;;;;2.09;98.72;101689.44;5058675;28;20497;-62
2021/01/04 01:59:06;;;;;;;18.77;10.27;;;;;;;2.09;98.46;101694.75;4989632;22;20104;-62
2021/01/04 02:01:40;;;;;;;17.23;10.32;;;;;;;2.19;98.30;101684.59;5017212;28;20077;-63
2021/01/04 02:04:15;;;;;;;19.17;10.98;;;;;;;2.20;99.25;101691.66;5018338;28;20054;-62
2021/01/04 02:06:52;;;;;;;18.20;10.10;;;;;;;2.23;99.23;101696.00;5019724;28;20482;-63
2021/01/04 02:09:23;;;;;;;19.75;10.63;;;;;;;2.25;98.56;101694.13;5015658;28;20103;-63
2021/01/04 02:11:57;;;;;;;16.52;9.60;;;;;;;2.22;98.84;101686.28;5020299;28;20053;-63
2021/01/04 02:14:31;;;;;;;18.02;10.75;;;;;;;2.16;98.53;101694.50;5017091;28;20045;-63
2021/01/04 02:17:10;;;;;;;18.42;10.82;;;;;;;2.24;98.45;101687.09;5015651;28;20053;-63
2021/01/04 02:19:48;;;;;;;16.98;10.30;;;;;;;2.21;98.57;101692.50;5021064;28;20057;-63
2021/01/04 02:22:33;;;;;;;19.85;10.55;;;;;;;2.17;98.92;101696.25;5022562;28;20060;-63
2021/01/04 02:25:00;;;;;;;23.80;12.13;;;;;;;2.18;98.71;101687.31;5023084;28;20042;-63
2021/01/04 02:27:30;;;;;;;21.70;11.75;;;;;;;2.16;99.50;101689.19;5021106;28;20072;-62
2021/01/04 02:29:57;;;;;;;20.40;11.15;;;;;;;2.18;99.43;101692.63;5022339;28;20053;-63
2021/01/04 02:32:23;;;;;;;19.85;11.77;;;;;;;2.17;99.08;101688.28;5019917;28;20045;-64
2021/01/04 02:34:53;;;;;;;19.65;11.32;;;;;;;2.17;98.68;101685.63;5020483;28;20052;-63
2021/01/04 02:37:20;;;;;;;19.77;10.85;;;;;;;2.17;98.76;101685.63;5019166;28;20054;-63
2021/01/04 02:39:51;;;;;;;18.55;10.98;;;;;;;2.17;99.50;101697.09;5022780;28;20061;-62
2021/01/04 02:42:20;;;;;;;21.92;11.80;;;;;;;2.18;98.63;101692.63;5022536;28;20052;-63
2021/01/04 02:44:46;;;;;;;16.73;10.63;;;;;;;2.18;99.07;101692.63;5019212;28;20057;-63
2021/01/04 02:47:27;;;;;;;18.20;10.60;;;;;;;2.21;98.43;101687.19;5022892;28;20095;-63
2021/01/04 02:50:02;;;;;;;19.33;10.88;;;;;;;2.20;98.93;101696.13;5005664;28;20487;-62
2021/01/04 02:52:47;;;;;;;20.20;11.77;;;;;;;2.19;98.99;101681.09;5020378;28;20049;-63
2021/01/04 02:55:20;;;;;;;18.65;10.63;;;;;;;2.16;98.56;101689.19;5020398;28;20057;-64
2021/01/04 02:57:54;;;;;;;20.73;10.88;;;;;;;2.17;98.70;101690.94;5021329;28;20050;-63
2021/01/04 03:00:24;;;;;;;20.88;10.75;;;;;;;2.15;99.37;101687.44;5021255;28;20042;-62
2021/01/04 03:02:55;;;;;;;18.33;10.27;;;;;;;2.22;98.95;101692.47;5037101;28;20051;-63
2021/01/04 03:05:23;;;;;;;17.42;10.32;;;;;;;2.16;98.79;101694.50;5033479;28;20046;-63
2021/01/04 03:07:51;;;;;;;20.67;10.00;;;;;;;2.14;99.05;101691.06;5043075;28;20053;-63
2021/01/04 03:10:23;;;;;;;19.42;11.10;;;;;;;2.13;98.44;101689.31;5038081;28;20041;-64
2021/01/04 03:13:04;;;;;;;18.17;9.13;;;;;;;2.09;98.24;101686.78;5040592;28;20060;-63
2021/01/04 03:15:44;;;;;;;18.35;9.45;;;;;;;2.09;98.74;101689.44;5041735;28;20060;-64
2021/01/04 03:18:21;;;;;;;18.00;9.80;;;;;;;2.08;98.14;101690.34;5040848;28;20056;-63
2021/01/04 03:20:47;;;;;;;17.77;9.73;;;;;;;2.15;98.88;101687.44;5033983;28;20049;-64
2021/01/04 03:23:13;;;;;;;19.25;9.45;;;;;;;2.14;98.39;101689.25;5039664;28;20049;-63
2021/01/04 03:25:47;;;;;;;19.45;10.05;;;;;;;2.13;97.97;101689.31;5040762;28;20049;-64
2021/01/04 03:28:22;;;;;;;16.77;10.70;;;;;;;2.14;97.99;101683.94;5040730;28;20049;-64
2021/01/04 03:30:49;;;;;;;15.90;9.93;;;;;;;2.15;98.79;101687.44;5039299;28;20053;-64
2021/01/04 03:33:15;;;;;;;19.30;10.27;;;;;;;2.13;98.96;101676.91;5038575;28;20100;-62
2021/01/04 03:35:41;;;;;;;16.08;9.57;;;;;;;2.18;98.40;101687.31;5041810;28;20057;-62
2021/01/04 03:38:07;;;;;;;18.58;9.73;;;;;;;2.13;98.65;101676.91;5038712;28;20052;-63
2021/01/04 03:40:34;;;;;;;17.00;10.45;;;;;;;2.08;98.28;101679.72;5040758;28;20417;-63
2021/01/04 03:42:59;;;;;;;15.10;8.38;;;;;;;2.12;98.69;101682.25;5040375;28;20065;-63
2021/01/04 03:45:26;;;;;;;18.75;10.02;;;;;;;2.12;98.25;101679.59;5040363;28;20046;-63
2021/01/04 03:47:52;;;;;;;17.55;9.77;;;;;;;2.09;98.81;101678.81;5039161;28;20110;-64
2021/01/04 03:50:18;;;;;;;18.52;9.85;;;;;;;2.08;99.24;101687.69;5039756;28;20049;-63
2021/01/04 03:52:44;;;;;;;17.85;9.13;;;;;;;2.13;98.64;101681.34;5041352;28;20056;-65
2021/01/04 03:55:11;;;;;;;18.77;9.68;;;;;;;2.13;99.03;101689.31;5038876;28;20063;-63
2021/01/04 03:57:37;;;;;;;19.75;10.15;;;;;;;2.12;98.50;101674.31;5040921;28;20103;-63
2021/01/04 04:00:05;;;;;;;18.58;10.15;;;;;;;2.10;98.33;101684.97;5051526;28;20059;-63
2021/01/04 04:02:32;;;;;;;16.73;8.90;;;;;;;2.11;99.09;101684.06;5059320;28;20117;-63
2021/01/04 04:04:58;;;;;;;19.75;9.63;;;;;;;2.14;99.21;101683.94;5058932;28;20056;-63
2021/01/04 04:07:24;;;;;;;15.40;8.77;;;;;;;2.14;98.42;101685.75;5058989;28;20041;-64
2021/01/04 04:09:50;;;;;;;21.13;9.77;;;;;;;2.10;98.78;101690.28;5061360;28;20072;-64
2021/01/04 04:12:16;;;;;;;15.75;10.13;;;;;;;2.15;98.30;101687.44;5060215;28;20048;-64
2021/01/04 04:14:46;;;;;;;16.83;9.73;;;;;;;2.16;98.14;101691.84;5060554;28;20386;-65
2021/01/04 04:17:12;;;;;;;16.20;9.45;;;;;;;2.14;98.66;101683.09;5060061;28;20044;-64
2021/01/04 04:19:39;;;;;;;17.38;9.07;;;;;;;2.13;98.48;101678.69;5060593;28;20432;-64
2021/01/04 04:22:05;;;;;;;17.13;9.38;;;;;;;2.11;98.03;101686.72;5058154;28;20052;-64
2021/01/04 04:24:31;;;;;;;16.23;9.00;;;;;;;2.12;98.42;101682.25;5058442;28;20053;-62
2021/01/04 04:26:57;;;;;;;17.83;10.23;;;;;;;2.07;98.85;101683.31;5062127;28;20048;-63
2021/01/04 04:29:23;;;;;;;17.23;9.57;;;;;;;2.06;98.80;101676.28;5060487;28;20090;-63
2021/01/04 04:31:49;;;;;;;16.60;9.43;;;;;;;2.08;98.13;101679.72;5060572;28;20083;-63
2021/01/04 04:34:16;;;;;;;18.95;10.23;;;;;;;2.13;98.84;101684.00;5058838;28;20049;-64
2021/01/04 04:36:44;;;;;;;14.70;8.75;;;;;;;2.14;98.04;101683.09;5058131;28;20055;-63
2021/01/04 04:39:12;;;;;;;20.23;9.73;;;;;;;2.14;98.20;101685.75;5058220;28;20052;-63
2021/01/04 04:41:41;;;;;;;13.75;8.80;;;;;;;2.11;98.17;101681.41;5058586;28;20060;-63
2021/01/04 04:44:15;;;;;;;20.17;9.45;;;;;;;2.17;98.35;101689.13;5058276;28;20125;-63
2021/01/04 04:46:54;;;;;;;16.17;8.85;;;;;;;2.14;97.38;101681.28;5058174;28;20052;-63
2021/01/04 04:49:48;;;;;;;17.67;9.25;;;;;;;2.20;98.29;101690.81;5059851;28;20060;-64
2021/01/04 04:52:35;;;;;;;18.13;8.95;;;;;;;2.15;97.73;101698.06;5055914;28;20048;-63
2021/01/04 04:55:13;;;;;;;15.23;8.57;;;;;;;2.14;97.36;101696.38;5057276;28;20111;-63
2021/01/04 04:57:49;;;;;;;16.42;8.45;;;;;;;2.23;97.49;101696.00;5059131;28;20041;-64
2021/01/04 05:00:36;;;;;;;17.38;8.98;;;;;;;2.23;96.93;101696.00;5057271;28;20118;-63
2021/01/04 05:03:15;;;;;;;13.25;8.10;;;;;;;2.21;96.68;101692.50;5056694;28;20056;-63
2021/01/04 05:06:23;;;;;;;17.20;9.68;;;;;;;2.16;96.59;101703.31;5058941;28;20048;-64
2021/01/04 05:09:02;;;;;;;17.30;8.63;;;;;;;2.18;97.61;101698.84;5057762;28;20052;-64
2021/01/04 05:11:32;;;;;;;17.10;9.45;;;;;;;2.16;97.08;101684.72;5060860;28;20277;-64
2021/01/04 05:14:04;;;;;;;16.20;9.35;;;;;;;2.17;96.97;101688.28;5057717;28;20056;-63
2021/01/04 05:16:45;;;;;;;19.35;10.27;;;;;;;2.16;98.05;101691.84;5058902;28;20691;-64
2021/01/04 05:19:42;;;;;;;17.35;9.90;;;;;;;2.14;98.45;101696.38;5058152;28;20059;-64
2021/01/04 05:22:39;;;;;;;16.75;8.68;;;;;;;2.15;97.65;101690.09;5058939;28;20052;-65
2021/01/04 05:25:43;;;;;;;20.45;10.38;;;;;;;2.16;98.60;101699.81;5058211;28;20052;-64
2021/01/04 05:28:37;;;;;;;17.20;9.93;;;;;;;2.15;98.14;101700.72;5059015;28;20049;-63
2021/01/04 05:31:23;;;;;;;20.60;9.73;;;;;;;2.15;98.00;101703.38;5057354;28;20057;-64
2021/01/04 05:34:01;;;;;;;18.88;9.57;;;;;;;2.13;98.41;101706.09;5057977;28;20067;-63
2021/01/04 05:37:01;;;;;;;19.48;10.07;;;;;;;2.10;98.65;101700.91;5059068;28;20056;-64
2021/01/04 05:39:43;;;;;;;24.23;9.80;;;;;;;2.11;98.80;101702.66;5057516;28;20053;-64
2021/01/04 05:42:31;;;;;;;19.65;10.32;;;;;;;2.12;98.41;101711.47;5058822;28;20421;-63
2021/01/04 05:45:06;;;;;;;20.60;10.45;;;;;;;2.09;98.47;101712.44;5055791;28;20664;-63
2021/01/04 05:48:02;;;;;;;20.00;9.63;;;;;;;2.15;98.83;101719.31;5058703;28;20044;-64
2021/01/04 05:50:37;;;;;;;21.13;10.80;;;;;;;2.15;99.35;101714.00;5058629;28;20412;-64
2021/01/04 05:53:04;;;;;;;20.52;10.15;;;;;;;2.15;98.83;101719.31;5056791;28;20053;-64
2021/01/04 05:55:30;;;;;;;20.20;9.85;;;;;;;2.12;99.24;101730.94;5060735;28;20048;-63
2021/01/04 06:00:35;;;;;;;18.67;9.38;;;;;;;2.10;98.91;101719.50;5055014;22;20101;-62
2021/01/04 06:03:10;;;;;;;18.17;9.32;;;;;;;2.14;98.32;101728.25;5059403;28;20489;-63
2021/01/04 06:05:37;;;;;;;18.98;10.05;;;;;;;2.06;98.82;101726.75;5058585;28;20047;-63
2021/01/04 06:08:04;;;;;;;15.75;9.15;;;;;;;2.07;98.84;101728.44;5058746;28;20444;-64
2021/01/04 06:10:32;;;;;;;16.63;9.48;;;;;;;2.09;98.50;101723.97;5060207;28;20194;-64
2021/01/04 06:13:01;;;;;;;17.80;9.45;;;;;;;2.12;98.73;101724.75;5056132;28;20052;-62
2021/01/04 06:15:29;;;;;;;20.10;10.73;;;;;;;2.08;98.74;101726.69;5059669;28;20065;-62
2021/01/04 06:18:02;;;;;;;17.38;10.68;;;;;;;2.07;98.57;101725.78;5059683;28;20052;-64
2021/01/04 06:20:42;;;;;;;15.95;9.98;;;;;;;2.05;98.83;101727.66;5058081;28;20049;-63
2021/01/04 06:23:12;;;;;;;18.95;9.43;;;;;;;2.06;99.10;101734.72;5057824;28;20052;-63
2021/01/04 06:25:38;;;;;;;24.85;10.90;;;;;;;2.05;98.71;101727.66;5046825;23;20052;-63
2021/01/04 06:28:05;;;;;;;15.23;9.45;;;;;;;2.04;99.58;101739.19;5057017;28;20048;-63
2021/01/04 06:30:34;;;;;;;19.48;10.43;;;;;;;2.08;99.21;101729.34;5058950;28;20471;-64
2021/01/04 06:33:09;;;;;;;19.42;10.00;;;;;;;2.15;99.49;101743.22;5056547;28;20052;-64
2021/01/04 06:35:35;;;;;;;20.95;9.50;;;;;;;2.18;99.49;101741.34;5057487;28;20048;-64
2021/01/04 06:38:13;;;;;;;21.95;9.35;;;;;;;2.14;98.88;101733.53;5058309;28;20049;-64
2021/01/04 06:40:41;;;;;;;20.17;10.05;;;;;;;2.06;99.04;101742.69;5058664;28;20048;-63
2021/01/04 06:43:20;;;;;;;19.13;10.23;;;;;;;2.10;99.08;101738.09;5058022;28;20045;-64
2021/01/04 06:45:55;;;;;;;;;;;;;;;2.12;99.23;101740.69;5057734;28;20048;-64
2021/01/04 06:48:28;;;;;;;17.55;9.25;;;;;;;2.11;99.56;101739.84;5057479;28;19928;-64
2021/01/04 06:51:12;;;;;;;20.88;10.75;;;;;;;2.14;99.65;101744.16;5059537;28;20048;-64
2021/01/04 06:53:57;;;;;;;26.55;10.82;;;;;;;2.12;99.58;101749.53;5055693;28;20055;-63
2021/01/04 06:56:52;;;;;;;18.80;9.75;;;;;;;2.12;98.95;101756.63;5055971;28;20052;-63
2021/01/04 06:59:35;;;;;;;19.15;9.43;;;;;;;2.18;98.78;101751.06;5057441;28;20059;-64
2021/01/04 07:02:33;;;;;;;23.52;10.27;;;;;;;2.16;99.47;101751.13;5057221;28;20041;-63
2021/01/04 07:08:12;;;;;;;17.65;9.38;;;;;;;2.21;98.64;101750.94;5054722;23;20088;-64
2021/01/04 07:10:59;;;;;;;20.13;9.95;;;;;;;2.18;99.03;101754.59;5039009;28;20037;-64
2021/01/04 07:13:38;;;;;;;19.30;9.40;;;;;;;2.18;99.08;101762.56;5039210;28;20104;-64
2021/01/04 07:16:29;;;;;;;16.25;8.77;;;;;;;2.18;99.08;101762.56;5039473;28;20055;-63
2021/01/04 07:19:02;;;;;;;20.50;9.95;;;;;;;2.16;98.93;101756.44;5041721;28;20083;-63
2021/01/04 07:21:40;;;;;;;17.02;8.93;;;;;;;2.17;98.97;101770.59;5042686;28;20440;-63
2021/01/04 07:24:30;;;;;;;22.40;9.13;;;;;;;2.21;99.32;101764.22;5037085;28;20099;-64
2021/01/04 07:27:16;;;;;;;18.60;8.95;;;;;;;2.26;98.62;101775.56;5041611;28;20279;-64
2021/01/04 07:30:11;;;;;;;21.27;9.73;;;;;;;2.18;99.42;101772.31;5042613;28;20055;-64
2021/01/04 07:32:45;;;;;;;16.27;8.93;;;;;;;2.22;98.95;101779.25;5038941;28;20477;-63
2021/01/04 07:35:16;;;;;;;16.73;9.20;;;;;;;2.23;98.75;101778.31;5039488;28;20517;-64
2021/01/04 07:37:55;;;;;;;16.58;9.48;;;;;;;2.21;98.32;101773.09;5040116;28;20072;-64
2021/01/04 07:40:41;;;;;;;18.27;9.73;;;;;;;2.19;98.87;101779.38;5040896;28;20049;-64
2021/01/04 07:43:56;;;;;;;18.98;8.65;;;;;;;2.23;99.33;101781.84;5039323;28;20053;-64
2021/01/04 07:46:48;;;;;;;18.02;8.63;;;;;;;2.26;98.42;101786.19;5002778;28;20049;-64
2021/01/04 07:49:59;;;;;;;19.08;8.95;;;;;;;2.25;98.65;101789.75;5038657;28;20441;-63
2021/01/04 07:52:54;;;;;;;16.17;8.52;;;;;;;2.19;98.27;101784.69;5037877;28;20116;-63
2021/01/04 07:58:11;;;;;;;14.35;8.75;;;;;;;2.19;98.63;101795.31;5045222;23;20053;-66
2021/01/04 08:01:22;;;;;;;16.75;8.38;;;;;;;2.23;98.17;101799.56;5011383;28;20056;-64
2021/01/04 08:04:04;;;;;;;16.90;8.20;;;;;;;2.25;98.31;101797.72;5001338;28;20054;-64
2021/01/04 08:06:51;;;;;;;14.43;8.05;;;;;;;2.24;98.31;101803.97;5020220;28;20466;-64
2021/01/04 08:09:29;;;;;;;15.00;7.70;;;;;;;2.25;98.47;101797.72;5014494;28;20050;-65
2021/01/04 08:12:14;;;;;;;16.05;8.35;;;;;;;2.24;97.94;101811.94;5019721;28;20050;-64
2021/01/04 08:14:55;;;;;;;12.63;7.47;;;;;;;2.28;97.77;101811.75;5018306;28;20474;-67
2021/01/04 08:17:29;;;;;;;13.52;7.13;;;;;;;2.32;97.71;101814.28;5019144;28;20454;-67
2021/01/04 08:19:59;;;;;;;13.30;7.60;;;;;;;2.30;97.71;101817.00;5019661;28;20045;-65
2021/01/04 08:22:41;;;;;;;12.10;6.93;;;;;;;2.33;97.62;101824.00;5020626;28;20068;-65
2021/01/04 08:25:12;;;;;;;16.15;7.03;;;;;;;2.32;97.55;101820.47;5020162;28;20069;-66
2021/01/04 08:27:53;;;;;;;11.68;7.18;;;;;;;2.29;97.30;101825.91;5021672;28;20049;-65
2021/01/04 08:30:25;;;;;;;15.20;7.28;;;;;;;2.27;96.99;101825.97;5021728;28;20053;-65
2021/01/04 08:32:57;;;;;;;11.57;5.25;;;;;;;2.30;96.90;101829.41;5020904;28;20121;-65
2021/01/04 08:35:37;;;;;;;11.00;6.25;;;;;;;2.27;96.51;101833.94;5020516;28;20066;-65
2021/01/04 08:38:33;;;;;;;9.88;6.10;;;;;;;2.32;96.40;101838.22;4980085;28;20045;-64
2021/01/04 08:41:05;;;;;;;12.93;7.10;;;;;;;2.26;96.54;101834.00;5004989;28;20053;-66
2021/01/04 08:43:35;;;;;;;11.90;6.53;;;;;;;2.32;96.44;101839.06;5019660;28;20054;-65
2021/01/04 08:46:20;;;;;;;10.40;6.10;;;;;;;2.32;96.07;101849.69;5021426;28;20050;-65
2021/01/04 08:48:46;;;;;;;10.55;5.55;;;;;;;2.36;95.93;101842.50;5019552;28;20050;-65
2021/01/04 08:51:14;;;;;;;9.48;6.25;;;;;;;2.32;96.18;101843.53;5020097;28;20108;-65
2021/01/04 08:56:27;;;;;;;11.95;6.00;;;;;;;2.30;95.90;101850.66;5003724;23;20090;-65
2021/01/04 08:59:05;;;;;;;11.32;5.55;;;;;;;2.28;96.26;101853.38;5059210;28;20084;-65
2021/01/04 09:01:31;;;;;;;10.60;6.05;;;;;;;2.28;96.57;101858.69;5056967;28;20048;-65
2021/01/04 09:04:05;;;;;;;12.80;6.18;;;;;;;2.28;96.35;101858.69;5056514;28;20063;-64
2021/01/04 09:06:34;;;;;;;8.45;5.65;;;;;;;2.29;96.06;101855.13;5055437;28;20056;-65
2021/01/04 09:11:29;;;;;;;8.82;5.97;;;;;;;2.34;95.77;101857.59;5012084;23;20050;-64
2021/01/04 09:13:55;;;;;;;10.88;6.45;;;;;;;2.35;95.21;101860.19;4996707;28;20518;-64
2021/01/04 09:16:30;;;;;;;10.95;5.70;;;;;;;2.34;95.24;101869.13;4999473;28;20062;-64
2021/01/04 09:19:07;;;;;;;10.32;5.63;;;;;;;2.39;95.32;101872.44;4997354;28;20101;-65
2021/01/04 09:21:36;;;;;;;10.00;5.65;;;;;;;2.38;95.80;101860.06;4999147;28;20166;-65
2021/01/04 09:24:18;;;;;;;10.82;5.35;;;;;;;2.42;95.03;101866.16;4996380;28;20050;-64
2021/01/04 09:26:46;;;;;;;10.45;5.68;;;;;;;2.42;94.65;101863.50;4998618;28;20060;-64
2021/01/04 09:29:25;;;;;;;10.13;5.95;;;;;;;2.38;94.96;101860.06;4994321;28;20400;-64
2021/01/04 09:31:54;;;;;;;8.45;5.32;;;;;;;2.38;94.92;101869.84;5002459;28;20058;-65
2021/01/04 09:34:20;;;;;;;8.52;5.70;;;;;;;2.35;95.38;101862.84;5001613;28;20065;-65
2021/01/04 09:36:46;;;;;;;8.75;5.80;;;;;;;2.32;95.18;101865.63;5001446;28;20561;-65
2021/01/04 09:39:13;;;;;;;8.15;5.20;;;;;;;2.28;94.85;101867.56;4989244;28;20100;-64
2021/01/04 09:41:39;;;;;;;9.45;5.00;;;;;;;2.31;94.12;101866.53;4998982;28;20052;-65
2021/01/04 09:44:10;;;;;;;9.00;5.07;;;;;;;2.35;94.34;101867.31;4998764;28;20049;-65
2021/01/04 09:46:43;;;;;;;7.45;4.93;;;;;;;2.31;94.19;101878.97;4989265;28;20057;-66
2021/01/04 09:49:15;;;;;;;8.25;5.78;;;;;;;2.26;94.15;101868.53;4993859;28;20061;-64
2021/01/04 09:51:45;;;;;;;10.20;5.70;;;;;;;2.30;94.38;101869.25;4998330;28;20446;-65
2021/01/04 09:54:12;;;;;;;;;;;;;;;2.26;93.69;101868.53;5001350;28;20092;-66
2021/01/04 09:56:41;;;;;;;9.82;5.25;;;;;;;2.23;94.41;101876.59;5001375;28;19925;-64
2021/01/04 09:59:11;;;;;;;7.63;4.63;;;;;;;2.23;93.51;101872.16;4998715;28;20521;-66
2021/01/04 10:01:44;;;;;;;8.18;4.57;;;;;;;2.22;93.62;101880.19;4999144;28;20058;-66
2021/01/04 10:04:11;;;;;;;6.53;4.40;;;;;;;2.21;93.70;101879.31;4997159;28;20068;-66
2021/01/04 10:06:39;;;;;;;7.88;4.85;;;;;;;2.23;93.84;101868.66;4999214;28;20120;-66
2021/01/04 10:09:13;;;;;;;7.25;4.53;;;;;;;2.21;93.26;101889.06;4997080;28;20054;-66
2021/01/04 10:11:39;;;;;;;8.10;4.88;;;;;;;2.24;92.83;101873.03;4996093;28;20057;-65
2021/01/04 10:16:59;;;;;;;7.22;4.60;;;;;;;2.24;93.61;101889.84;5033147;23;20532;-65
2021/01/04 10:19:30;;;;;;;7.07;4.70;;;;;;;2.23;93.53;101884.56;5037415;28;20409;-65
2021/01/04 10:22:01;;;;;;;7.15;4.40;;;;;;;2.28;92.20;101887.91;5035529;28;20414;-65
2021/01/04 10:24:35;;;;;;;8.55;4.97;;;;;;;2.27;92.82;101880.88;5037346;28;20457;-66
2021/01/04 10:27:03;;;;;;;6.57;3.92;;;;;;;2.30;93.08;101885.19;5040231;28;20544;-65
2021/01/04 10:29:30;;;;;;;8.15;4.15;;;;;;;2.33;92.95;101883.31;5039306;28;20050;-66
2021/01/04 10:32:09;;;;;;;6.65;4.05;;;;;;;2.36;92.42;101883.19;5035804;28;20053;-66
2021/01/04 10:34:41;;;;;;;7.85;4.72;;;;;;;2.31;92.26;101876.31;5035513;28;20057;-65
2021/01/04 10:37:22;;;;;;;7.30;4.20;;;;;;;2.30;92.21;101882.53;5032122;28;20050;-65
2021/01/04 10:39:49;;;;;;;6.78;3.97;;;;;;;2.28;92.36;101885.25;5039739;28;20103;-66
2021/01/04 10:42:21;;;;;;;7.60;4.18;;;;;;;2.30;92.29;101883.44;5042297;28;20148;-66
2021/01/04 10:44:49;;;;;;;8.13;4.65;;;;;;;2.30;92.72;101877.22;5040891;28;20622;-63
2021/01/04 10:47:20;;;;;;;8.50;4.32;;;;;;;2.23;92.70;101889.91;5029880;28;20049;-65
2021/01/04 10:49:46;;;;;;;10.93;5.18;;;;;;;2.23;92.93;101881.91;5041847;28;20116;-66
2021/01/04 10:52:21;;;;;;;9.15;5.25;;;;;;;2.20;92.94;101887.34;5043678;28;20049;-66
2021/01/04 10:54:47;;;;;;;9.90;4.47;;;;;;;2.19;93.04;101875.84;5042077;28;20552;-65
2021/01/04 10:57:20;;;;;;;9.13;5.07;;;;;;;2.18;92.94;101883.88;5032251;28;20049;-65
2021/01/04 10:59:54;;;;;;;8.82;4.57;;;;;;;2.13;93.29;101869.91;5041067;28;20061;-65
2021/01/04 11:02:21;;;;;;;8.27;4.38;;;;;;;2.08;92.79;101878.91;5042217;28;20044;-65
2021/01/04 11:04:53;;;;;;;6.32;3.97;;;;;;;2.06;92.71;101861.28;5042714;28;20049;-65
2021/01/04 11:07:27;;;;;;;7.90;4.55;;;;;;;2.09;92.84;101864.72;5041363;28;20059;-66
2021/01/04 11:09:54;;;;;;;5.88;4.60;;;;;;;2.12;92.87;101863.75;5042417;28;20615;-64
2021/01/04 11:12:22;;;;;;;5.80;4.30;;;;;;;2.11;93.36;101859.34;5042060;28;20056;-66
2021/01/04 11:14:56;;;;;;;6.68;4.50;;;;;;;2.01;92.42;101850.84;5042359;28;20049;-66
2021/01/04 11:17:26;;;;;;;7.22;4.88;;;;;;;2.07;92.78;101850.59;5040240;28;20046;-63
2021/01/04 11:19:53;;;;;;;7.03;4.35;;;;;;;2.03;92.49;101849.00;5042588;28;20060;-63
2021/01/04 11:22:26;;;;;;;8.80;4.45;;;;;;;2.04;92.52;101850.72;5037646;28;20049;-66
2021/01/04 11:24:52;;;;;;;8.75;4.32;;;;;;;2.02;92.71;101847.28;5038552;28;20045;-66
2021/01/04 11:27:19;;;;;;;6.43;4.15;;;;;;;2.08;92.47;101851.50;5038519;28;20041;-65
2021/01/04 11:29:46;;;;;;;6.93;3.92;;;;;;;2.06;92.02;101848.91;5039158;28;20504;-65
2021/01/04 11:32:13;;;;;;;8.88;3.83;;;;;;;2.05;91.60;101841.84;5031495;28;20044;-65
2021/01/04 11:34:43;;;;;;;4.60;3.35;;;;;;;2.07;91.96;101850.59;5036694;28;20048;-65
2021/01/04 11:37:09;;;;;;;8.02;3.95;;;;;;;2.04;91.30;101845.41;5039441;28;20061;-66
2021/01/04 11:39:35;;;;;;;6.63;3.55;;;;;;;2.05;91.32;101839.19;5041811;28;20061;-66
2021/01/04 11:42:02;;;;;;;5.55;3.47;;;;;;;2.05;91.35;101847.16;5041156;28;20055;-66
2021/01/04 11:44:28;;;;;;;7.18;3.45;;;;;;;2.03;91.81;101838.38;5041949;28;20057;-65
2021/01/04 11:46:54;;;;;;;5.82;3.60;;;;;;;2.06;91.32;101843.59;5040727;28;20060;-66
2021/01/04 11:49:20;;;;;;;4.53;3.42;;;;;;;2.02;91.54;101836.66;5037772;28;20045;-65
2021/01/04 11:51:50;;;;;;;5.53;3.60;;;;;;;2.04;90.82;101839.25;5042021;28;20081;-66
2021/01/04 11:54:16;;;;;;;5.32;3.20;;;;;;;2.09;91.51;101838.16;5036994;28;20057;-64
2021/01/04 11:56:42;;;;;;;5.43;3.28;;;;;;;2.05;91.31;101841.84;5032368;28;20053;-65
2021/01/04 11:59:08;;;;;;;5.45;3.33;;;;;;;2.12;91.50;101838.94;5041072;28;20098;-65
2021/01/04 12:01:35;;;;;;;6.35;3.30;;;;;;;2.05;90.64;101836.53;5029676;28;20064;-65
2021/01/04 12:04:01;;;;;;;4.30;3.22;;;;;;;2.01;89.98;101837.56;5040705;28;20053;-65
2021/01/04 12:06:27;;;;;;;4.35;2.85;;;;;;;2.01;90.49;101837.56;5039949;28;20121;-65
2021/01/04 12:08:53;;;;;;;4.70;3.22;;;;;;;1.99;90.66;101842.06;5042990;28;20553;-63
2021/01/04 12:11:21;;;;;;;4.65;3.28;;;;;;;1.97;90.73;101833.28;5039511;28;20157;-63
2021/01/04 12:13:47;;;;;;;6.07;3.35;;;;;;;2.01;90.09;101824.28;5042033;28;20132;-64
2021/01/04 12:16:13;;;;;;;6.80;4.20;;;;;;;1.97;90.63;101821.81;5039350;28;20065;-63
2021/01/04 12:18:39;;;;;;;6.22;3.33;;;;;;;1.98;90.27;101824.41;5040717;28;20540;-63